Time;durP1;ratioP1;P1;durP2;ratioP2;P2;SDS_P1;SDS_P2;PMS_P1;PMS_P2;Temp;Humidity;BMP_temperature;BMP_pressure;BME280_temperature;BME280_humidity;BME280_pressure;Samples;Min_cycle;Max_cycle;Signal;HPM_P1;HPM_P2
2023/06/11 00:01:55;;;;;;;5.22;4.53;;;24.80;73.60;;;;;;5043463;28;20072;-43
2023/06/11 00:04:25;;;;;;;4.47;4.07;;;24.70;73.70;;;;;;5044282;28;20071;-43
2023/06/11 00:06:53;;;;;;;4.63;4.10;;;24.70;73.90;;;;;;5046943;28;20028;-43
2023/06/11 00:09:19;;;;;;;5.40;4.88;;;24.60;73.90;;;;;;5043998;28;20029;-43
2023/06/11 00:11:45;;;;;;;5.50;4.63;;;24.60;74.10;;;;;;5042620;28;20075;-44
2023/06/11 00:14:10;;;;;;;5.00;4.50;;;24.60;74.30;;;;;;5043608;28;20029;-43
2023/06/11 00:16:36;;;;;;;4.93;3.95;;;24.60;74.40;;;;;;5040147;28;20025;-43
2023/06/11 00:19:03;;;;;;;5.22;4.30;;;24.50;74.50;;;;;;5041218;28;20152;-42
2023/06/11 00:21:29;;;;;;;4.70;4.30;;;24.50;74.60;;;;;;5040765;28;20043;-44
2023/06/11 00:23:56;;;;;;;4.75;4.35;;;24.40;74.70;;;;;;5046150;28;20424;-43
2023/06/11 00:26:22;;;;;;;4.43;4.03;;;24.40;74.90;;;;;;5044676;28;20035;-43
2023/06/11 00:28:48;;;;;;;5.30;4.80;;;24.30;75.00;;;;;;5041471;28;20065;-44
2023/06/11 00:31:13;;;;;;;6.47;4.57;;;24.30;75.20;;;;;;5040747;28;20755;-43
2023/06/11 00:33:39;;;;;;;5.38;4.88;;;24.30;75.30;;;;;;5041576;28;20029;-43
2023/06/11 00:36:05;;;;;;;6.80;4.80;;;24.30;75.50;;;;;;5044886;28;20029;-43
2023/06/11 00:38:31;;;;;;;5.00;4.57;;;24.30;75.70;;;;;;5042997;28;20040;-44
2023/06/11 00:40:57;;;;;;;6.68;4.53;;;24.20;75.80;;;;;;5043373;28;20041;-43
2023/06/11 00:43:23;;;;;;;5.38;4.85;;;24.20;75.90;;;;;;5045487;28;20035;-43
2023/06/11 00:45:50;;;;;;;5.03;4.50;;;24.20;76.10;;;;;;5045122;28;20041;-43
2023/06/11 00:48:19;;;;;;;5.75;4.60;;;24.20;76.30;;;;;;5046335;28;20078;-43
2023/06/11 00:50:47;;;;;;;5.05;4.45;;;24.10;76.30;;;;;;5040364;28;20128;-42
2023/06/11 00:53:13;;;;;;;4.85;4.38;;;24.10;76.50;;;;;;5032887;28;20093;-43
2023/06/11 00:55:39;;;;;;;5.22;4.82;;;24.10;76.60;;;;;;5040689;28;20021;-43
2023/06/11 00:58:13;;;;;;;5.28;4.78;;;24.10;76.70;;;;;;5042068;28;20110;-42
2023/06/11 01:00:58;;;;;;;5.13;4.25;;;24.00;76.80;;;;;;5041864;28;20492;-43
2023/06/11 01:03:33;;;;;;;5.32;4.82;;;24.00;77.00;;;;;;5034025;28;20021;-44
2023/06/11 01:06:06;;;;;;;5.35;4.85;;;23.90;77.00;;;;;;5040336;28;20047;-43
2023/06/11 01:08:38;;;;;;;5.10;4.60;;;23.90;77.20;;;;;;5024515;28;20088;-44
2023/06/11 01:11:08;;;;;;;;;;;23.90;77.30;;;;;;5040389;28;20380;-44
2023/06/11 01:13:36;;;;;;;5.55;5.05;;;23.90;77.30;;;;;;5044444;28;19915;-42
2023/06/11 01:16:08;;;;;;;4.72;4.32;;;23.90;77.40;;;;;;5043074;28;20028;-44
2023/06/11 01:18:39;;;;;;;5.82;4.60;;;23.80;77.60;;;;;;5034766;28;20091;-43
2023/06/11 01:21:12;;;;;;;5.28;4.78;;;23.80;77.70;;;;;;5042493;28;20036;-43
2023/06/11 01:23:55;;;;;;;5.10;4.60;;;23.80;77.90;;;;;;5040884;28;20859;-44
2023/06/11 01:26:43;;;;;;;4.90;4.40;;;23.80;78.00;;;;;;5042859;28;20115;-43
2023/06/11 01:29:10;;;;;;;5.20;4.70;;;23.80;78.20;;;;;;5043309;28;20040;-43
2023/06/11 01:31:40;;;;;;;4.97;4.57;;;23.70;78.20;;;;;;5042032;28;20024;-43
2023/06/11 01:34:06;;;;;;;5.70;5.10;;;23.70;78.40;;;;;;5045347;28;20021;-43
2023/06/11 01:36:36;;;;;;;5.00;4.60;;;23.70;78.60;;;;;;5036197;28;20028;-43
2023/06/11 01:39:05;;;;;;;5.32;4.82;;;23.70;78.60;;;;;;5038262;28;20090;-43
2023/06/11 01:41:31;;;;;;;5.78;4.93;;;23.70;78.80;;;;;;5042882;28;20542;-44
2023/06/11 01:43:56;;;;;;;5.25;4.78;;;23.60;78.80;;;;;;5036081;28;20038;-43
2023/06/11 01:46:22;;;;;;;5.93;5.07;;;23.60;79.00;;;;;;5043208;28;20029;-44
2023/06/11 01:48:47;;;;;;;5.20;4.70;;;23.50;79.10;;;;;;5042247;28;20067;-44
2023/06/11 01:51:16;;;;;;;4.55;4.18;;;23.50;79.30;;;;;;5044457;28;20032;-42
2023/06/11 01:53:44;;;;;;;6.30;5.28;;;23.50;79.30;;;;;;5038278;28;20083;-43
2023/06/11 01:56:10;;;;;;;6.25;5.22;;;23.50;79.50;;;;;;5041511;28;20036;-43
2023/06/11 01:58:37;;;;;;;4.97;4.50;;;23.40;79.50;;;;;;5040961;28;20682;-43
2023/06/11 02:01:03;;;;;;;5.75;4.82;;;23.40;80.20;;;;;;5039209;28;20120;-42
2023/06/11 02:03:28;;;;;;;5.65;5.18;;;23.30;79.70;;;;;;5039297;28;20102;-43
2023/06/11 02:05:54;;;;;;;4.82;4.38;;;23.30;79.80;;;;;;5037395;28;20585;-42
2023/06/11 02:08:20;;;;;;;6.05;4.80;;;23.30;80.00;;;;;;5043927;28;20550;-42
2023/06/11 02:10:46;;;;;;;5.68;5.18;;;23.20;80.00;;;;;;5041494;28;20607;-44
2023/06/11 02:13:11;;;;;;;5.45;4.95;;;23.20;80.80;;;;;;5039366;28;20071;-44
2023/06/11 02:15:37;;;;;;;6.00;5.40;;;23.20;80.30;;;;;;5034069;28;20033;-42
2023/06/11 02:18:02;;;;;;;6.65;4.72;;;23.10;80.40;;;;;;5037717;28;20691;-43
2023/06/11 02:20:28;;;;;;;5.30;4.68;;;23.10;80.50;;;;;;5038084;28;20045;-45
2023/06/11 02:22:54;;;;;;;4.78;4.38;;;23.10;80.70;;;;;;5031666;28;20033;-43
2023/06/11 02:25:19;;;;;;;5.57;5.05;;;23.10;80.80;;;;;;5039537;28;20511;-43
2023/06/11 02:27:46;;;;;;;6.13;5.60;;;23.00;80.80;;;;;;5041673;28;20037;-43
2023/06/11 02:30:12;;;;;;;6.32;5.30;;;23.00;81.00;;;;;;5043182;28;20393;-43
2023/06/11 02:32:39;;;;;;;5.35;4.85;;;23.00;81.10;;;;;;5042721;28;20064;-43
2023/06/11 02:35:06;;;;;;;7.47;5.40;;;22.90;81.20;;;;;;5037310;28;20032;-43
2023/06/11 02:37:31;;;;;;;6.05;5.25;;;22.90;81.30;;;;;;5040088;28;20082;-42
2023/06/11 02:39:57;;;;;;;6.65;4.93;;;22.80;81.40;;;;;;5037075;28;20033;-43
2023/06/11 02:42:22;;;;;;;5.85;4.72;;;22.80;81.40;;;;;;5036058;28;20055;-42
2023/06/11 02:44:48;;;;;;;5.70;5.20;;;22.80;81.50;;;;;;5040543;28;20030;-42
2023/06/11 02:47:13;;;;;;;5.90;4.72;;;22.70;81.50;;;;;;5035122;28;20123;-43
2023/06/11 02:49:39;;;;;;;5.80;5.20;;;22.70;81.70;;;;;;5041058;28;20029;-43
2023/06/11 02:52:05;;;;;;;5.43;4.93;;;22.70;81.80;;;;;;5042139;28;20035;-42
2023/06/11 02:54:31;;;;;;;5.50;5.00;;;22.60;81.80;;;;;;5040266;28;20510;-44
2023/06/11 02:56:56;;;;;;;4.88;4.38;;;22.60;81.90;;;;;;5037643;28;20030;-44
2023/06/11 02:59:22;;;;;;;5.15;4.75;;;22.60;82.00;;;;;;5039606;28;20330;-43
2023/06/11 03:01:47;;;;;;;5.00;4.55;;;22.50;82.00;;;;;;5033445;28;20033;-42
2023/06/11 03:04:13;;;;;;;5.72;4.88;;;22.50;82.10;;;;;;5037910;28;20413;-44
2023/06/11 03:06:38;;;;;;;5.10;4.65;;;22.50;82.20;;;;;;5035735;28;20028;-43
2023/06/11 03:09:04;;;;;;;5.20;4.70;;;22.50;82.20;;;;;;5043100;28;20036;-44
2023/06/11 03:11:29;;;;;;;5.30;4.80;;;22.50;82.30;;;;;;5041727;28;20080;-43
2023/06/11 03:13:55;;;;;;;5.63;5.13;;;22.40;82.40;;;;;;5041731;28;20055;-43
2023/06/11 03:16:21;;;;;;;6.25;4.93;;;22.40;82.40;;;;;;5040410;28;20032;-43
2023/06/11 03:18:46;;;;;;;5.45;4.95;;;22.40;82.50;;;;;;5039085;28;20029;-43
2023/06/11 03:21:12;;;;;;;5.10;4.60;;;22.40;82.50;;;;;;5037050;28;20033;-43
2023/06/11 03:23:40;;;;;;;5.68;5.18;;;22.30;82.50;;;;;;5035023;28;20033;-43
2023/06/11 03:26:05;;;;;;;6.30;5.30;;;22.30;82.60;;;;;;5042558;28;20029;-44
2023/06/11 03:28:31;;;;;;;5.25;4.85;;;22.30;82.80;;;;;;5028249;28;20030;-43
2023/06/11 03:30:56;;;;;;;7.15;5.38;;;22.30;82.80;;;;;;5039218;28;20076;-44
2023/06/11 03:33:22;;;;;;;5.55;5.05;;;22.30;82.90;;;;;;5042578;28;20037;-42
2023/06/11 03:35:48;;;;;;;5.25;4.85;;;22.20;82.90;;;;;;5042187;28;20052;-44
2023/06/11 03:38:13;;;;;;;6.90;4.78;;;22.20;82.90;;;;;;5040559;28;20017;-43
2023/06/11 03:40:39;;;;;;;4.88;4.47;;;22.20;83.00;;;;;;5032639;28;20111;-43
2023/06/11 03:43:04;;;;;;;5.13;4.72;;;22.20;83.10;;;;;;5040199;28;20017;-43
2023/06/11 03:45:30;;;;;;;5.60;4.20;;;22.20;83.10;;;;;;5043318;28;20123;-44
2023/06/11 03:47:55;;;;;;;5.00;4.60;;;22.20;83.20;;;;;;5042571;28;20028;-43
2023/06/11 03:50:21;;;;;;;5.82;5.30;;;22.20;83.30;;;;;;5039730;28;20036;-44
2023/06/11 03:52:47;;;;;;;5.45;4.95;;;22.10;83.20;;;;;;5044276;28;20124;-43
2023/06/11 03:55:13;;;;;;;5.85;5.00;;;22.10;83.30;;;;;;5036866;28;20031;-43
2023/06/11 03:57:39;;;;;;;5.50;5.00;;;22.10;83.40;;;;;;5042098;28;20378;-43
2023/06/11 04:00:06;;;;;;;5.72;4.28;;;22.10;83.40;;;;;;5047040;28;20029;-43
2023/06/11 04:02:31;;;;;;;6.53;5.00;;;22.10;83.50;;;;;;5044231;28;20032;-42
2023/06/11 04:04:57;;;;;;;5.13;4.63;;;22.00;83.60;;;;;;5041710;28;20034;-43
2023/06/11 04:07:22;;;;;;;5.65;4.78;;;22.00;83.60;;;;;;5038993;28;20136;-43
2023/06/11 04:09:48;;;;;;;5.97;4.70;;;22.00;83.70;;;;;;5033918;28;20029;-43
2023/06/11 04:12:14;;;;;;;5.55;5.05;;;22.00;83.80;;;;;;5036318;28;20057;-43
2023/06/11 04:14:39;;;;;;;5.20;4.68;;;22.00;83.80;;;;;;5028771;28;20040;-43
2023/06/11 04:17:05;;;;;;;5.93;4.80;;;22.00;83.80;;;;;;5033602;28;20075;-42
2023/06/11 04:19:31;;;;;;;5.95;5.35;;;22.00;83.90;;;;;;5030396;28;20079;-43
2023/06/11 04:21:56;;;;;;;5.85;4.80;;;22.00;84.00;;;;;;5036074;28;20671;-42
2023/06/11 04:24:22;;;;;;;5.25;4.75;;;22.00;84.00;;;;;;5041203;28;20102;-42
2023/06/11 04:26:47;;;;;;;5.32;4.82;;;22.00;84.00;;;;;;5040335;28;20534;-42
2023/06/11 04:29:15;;;;;;;5.90;5.22;;;22.00;84.10;;;;;;5040686;28;20025;-44
2023/06/11 04:31:41;;;;;;;5.22;4.72;;;22.00;84.20;;;;;;5030820;28;20035;-43
2023/06/11 04:34:07;;;;;;;4.82;4.43;;;22.00;84.20;;;;;;5036884;28;20033;-43
2023/06/11 04:36:33;;;;;;;4.70;4.30;;;22.00;84.20;;;;;;5036790;28;20043;-43
2023/06/11 04:39:03;;;;;;;5.63;5.10;;;22.00;84.30;;;;;;5039640;28;20461;-43
2023/06/11 04:41:29;;;;;;;4.85;4.45;;;22.00;84.40;;;;;;5045680;28;20086;-44
2023/06/11 04:43:55;;;;;;;5.10;4.60;;;22.00;84.40;;;;;;5034856;28;20033;-43
2023/06/11 04:46:21;;;;;;;6.65;4.75;;;22.10;84.50;;;;;;5037069;28;20053;-43
2023/06/11 04:48:50;;;;;;;5.22;4.72;;;22.10;84.60;;;;;;5039671;28;20916;-43
2023/06/11 04:51:16;;;;;;;5.78;5.20;;;22.10;85.30;;;;;;5028198;28;20030;-43
2023/06/11 04:53:43;;;;;;;5.25;4.65;;;22.10;84.70;;;;;;5034973;28;20762;-44
2023/06/11 04:56:08;;;;;;;5.30;4.80;;;22.10;84.70;;;;;;5028038;28;20042;-43
2023/06/11 04:58:34;;;;;;;5.13;4.72;;;22.10;84.70;;;;;;5035150;28;20110;-43
2023/06/11 05:01:00;;;;;;;5.22;4.82;;;22.10;84.70;;;;;;5030518;28;20076;-44
2023/06/11 05:03:27;;;;;;;4.90;4.43;;;22.10;84.70;;;;;;5037027;28;20013;-44
2023/06/11 05:05:54;;;;;;;4.72;4.32;;;22.10;84.70;;;;;;5043354;28;20098;-44
2023/06/11 05:08:24;;;;;;;5.10;4.70;;;22.10;84.80;;;;;;5042000;28;20025;-44
2023/06/11 05:10:53;;;;;;;4.65;4.25;;;22.10;84.80;;;;;;5030301;28;20041;-43
2023/06/11 05:13:24;;;;;;;4.68;4.13;;;22.10;84.90;;;;;;5032011;28;20035;-44
2023/06/11 05:15:54;;;;;;;4.50;4.10;;;22.10;84.90;;;;;;5027881;28;20033;-44
2023/06/11 05:18:20;;;;;;;4.88;4.47;;;22.20;85.00;;;;;;5030465;28;20040;-43
2023/06/11 05:20:48;;;;;;;5.07;4.65;;;22.20;85.00;;;;;;5032772;28;20032;-44
2023/06/11 05:23:14;;;;;;;5.30;4.80;;;22.20;85.00;;;;;;5028030;28;20032;-43
2023/06/11 05:25:46;;;;;;;5.45;4.57;;;22.20;85.00;;;;;;5030172;28;20110;-43
2023/06/11 05:28:12;;;;;;;4.57;4.18;;;22.20;85.10;;;;;;5036004;28;20025;-44
2023/06/11 05:30:38;;;;;;;4.97;4.20;;;22.30;85.10;;;;;;5036663;28;20028;-43
2023/06/11 05:33:05;;;;;;;5.40;4.90;;;22.30;85.10;;;;;;5044274;28;20032;-44
2023/06/11 05:35:30;;;;;;;4.57;4.18;;;22.30;85.10;;;;;;5040191;28;20028;-43
2023/06/11 05:37:57;;;;;;;5.15;4.65;;;22.30;85.20;;;;;;5037081;28;20039;-43
2023/06/11 05:40:23;;;;;;;5.70;4.35;;;22.40;85.20;;;;;;5027708;28;20045;-44
2023/06/11 05:42:49;;;;;;;4.85;4.47;;;22.40;85.20;;;;;;5027001;28;20030;-43
2023/06/11 05:45:19;;;;;;;5.32;4.88;;;22.40;85.30;;;;;;5037844;28;20715;-43
2023/06/11 05:47:45;;;;;;;4.68;4.28;;;22.40;85.40;;;;;;5026037;28;20037;-43
2023/06/11 05:50:11;;;;;;;5.35;4.75;;;22.50;85.40;;;;;;5041596;28;20447;-43
2023/06/11 05:52:37;;;;;;;4.80;4.40;;;22.50;85.50;;;;;;5033811;28;20237;-43
2023/06/11 05:55:03;;;;;;;4.50;4.10;;;22.50;85.50;;;;;;5028194;28;20041;-43
2023/06/11 05:57:29;;;;;;;4.80;4.40;;;22.60;85.50;;;;;;5027639;28;20498;-44
2023/06/11 05:59:54;;;;;;;4.70;4.30;;;22.60;85.50;;;;;;5029443;28;20025;-42
2023/06/11 06:02:20;;;;;;;5.63;5.13;;;22.70;85.60;;;;;;5035787;28;20041;-43
2023/06/11 06:04:48;;;;;;;4.93;4.53;;;22.70;85.60;;;;;;5032931;28;20045;-43
2023/06/11 06:07:15;;;;;;;4.63;4.22;;;22.70;85.60;;;;;;5039560;28;20074;-43
2023/06/11 06:09:40;;;;;;;4.55;4.25;;;22.70;85.50;;;;;;5028004;28;20027;-44
2023/06/11 06:12:06;;;;;;;4.43;4.03;;;22.80;85.60;;;;;;5034742;28;20037;-43
2023/06/11 06:14:32;;;;;;;4.93;4.40;;;22.80;85.60;;;;;;5028309;28;20051;-43
2023/06/11 06:16:58;;;;;;;4.30;4.00;;;22.90;85.60;;;;;;5036152;28;20088;-44
2023/06/11 06:19:24;;;;;;;5.38;4.25;;;22.90;85.60;;;;;;5036789;28;20033;-43
2023/06/11 06:21:49;;;;;;;4.50;4.15;;;22.90;85.60;;;;;;5029560;28;20762;-43
2023/06/11 06:24:15;;;;;;;5.97;4.47;;;23.00;85.60;;;;;;5028859;28;20021;-43
2023/06/11 06:26:40;;;;;;;5.13;4.40;;;23.00;85.70;;;;;;5039914;28;20778;-44
2023/06/11 06:29:09;;;;;;;4.57;4.18;;;23.10;85.80;;;;;;5027559;28;20037;-43
2023/06/11 06:31:38;;;;;;;5.10;4.70;;;23.10;85.90;;;;;;5043096;28;20380;-42
2023/06/11 06:34:03;;;;;;;4.70;4.30;;;23.10;85.90;;;;;;5032947;28;20032;-43
2023/06/11 06:36:29;;;;;;;4.57;4.18;;;23.10;85.90;;;;;;5037715;28;20034;-43
2023/06/11 06:38:55;;;;;;;4.65;4.20;;;23.10;85.80;;;;;;5025934;28;20025;-44
2023/06/11 06:41:20;;;;;;;4.35;3.95;;;23.20;85.80;;;;;;5040722;28;20500;-43
2023/06/11 06:43:46;;;;;;;3.75;3.42;;;23.20;85.80;;;;;;5033481;28;20033;-44
2023/06/11 06:46:12;;;;;;;4.15;3.75;;;23.30;85.70;;;;;;5037647;28;20048;-44
2023/06/11 06:48:37;;;;;;;3.97;3.53;;;23.30;85.70;;;;;;5041540;28;20033;-43
2023/06/11 06:51:03;;;;;;;3.83;3.53;;;23.30;85.60;;;;;;5043369;28;20024;-44
2023/06/11 06:53:29;;;;;;;3.95;3.58;;;23.40;85.60;;;;;;5029945;28;20389;-44
2023/06/11 06:55:55;;;;;;;5.72;4.00;;;23.40;85.70;;;;;;5023892;28;20056;-44
2023/06/11 06:58:20;;;;;;;4.60;4.20;;;23.50;85.90;;;;;;5032343;28;20096;-44
2023/06/11 07:00:46;;;;;;;5.28;4.78;;;23.50;85.90;;;;;;5028742;28;20117;-42
2023/06/11 07:03:13;;;;;;;4.15;3.83;;;23.60;86.10;;;;;;5035953;28;20044;-44
2023/06/11 07:05:40;;;;;;;4.63;4.07;;;23.60;86.10;;;;;;5021120;28;20033;-43
2023/06/11 07:08:05;;;;;;;4.40;4.10;;;23.60;86.10;;;;;;5041888;28;20896;-43
2023/06/11 07:10:31;;;;;;;4.28;3.95;;;23.70;86.00;;;;;;5033543;28;20026;-43
2023/06/11 07:12:56;;;;;;;5.10;4.20;;;23.70;86.00;;;;;;5031058;28;20535;-43
2023/06/11 07:15:22;;;;;;;3.97;3.67;;;23.80;86.20;;;;;;5040161;28;20762;-44
2023/06/11 07:17:48;;;;;;;4.20;3.78;;;23.80;86.10;;;;;;5039313;28;20033;-43
2023/06/11 07:20:13;;;;;;;4.40;4.00;;;23.90;86.10;;;;;;5023524;28;20037;-44
2023/06/11 07:22:39;;;;;;;5.00;3.80;;;23.90;86.10;;;;;;5028594;28;20439;-43
2023/06/11 07:25:06;;;;;;;4.63;4.22;;;24.00;86.10;;;;;;5031040;28;20021;-43
2023/06/11 07:27:32;;;;;;;6.22;4.03;;;24.00;86.10;;;;;;5030853;28;20040;-44
2023/06/11 07:29:57;;;;;;;4.35;3.42;;;24.00;86.10;;;;;;5041936;28;20025;-43
2023/06/11 07:32:23;;;;;;;3.97;3.60;;;24.00;85.90;;;;;;5029320;28;20040;-44
2023/06/11 07:34:49;;;;;;;4.03;3.72;;;24.10;86.00;;;;;;5036473;28;20108;-44
2023/06/11 07:37:14;;;;;;;4.65;4.25;;;24.20;86.00;;;;;;5021617;28;20576;-42
2023/06/11 07:39:40;;;;;;;4.15;3.85;;;24.20;86.10;;;;;;5032180;28;20050;-44
2023/06/11 07:42:07;;;;;;;4.45;4.07;;;24.30;86.10;;;;;;5028669;28;20045;-43
2023/06/11 07:44:32;;;;;;;4.15;3.85;;;24.30;86.20;;;;;;5030989;28;20030;-44
2023/06/11 07:46:58;;;;;;;4.60;4.20;;;24.40;86.10;;;;;;5022125;28;20045;-42
2023/06/11 07:49:23;;;;;;;3.60;3.35;;;24.40;86.00;;;;;;5031914;28;20709;-44
2023/06/11 07:51:49;;;;;;;5.13;4.38;;;24.50;86.10;;;;;;5039655;28;20041;-44
2023/06/11 07:54:15;;;;;;;3.72;3.42;;;24.50;86.00;;;;;;5033738;28;20055;-44
2023/06/11 07:56:40;;;;;;;3.58;3.30;;;24.60;86.10;;;;;;5021238;28;20025;-43
2023/06/11 07:59:06;;;;;;;3.47;3.17;;;24.60;86.00;;;;;;5028598;28;20543;-43
2023/06/11 08:01:32;;;;;;;4.10;3.70;;;24.70;85.80;;;;;;5020722;28;20045;-43
2023/06/11 08:03:58;;;;;;;5.10;3.83;;;24.70;85.90;;;;;;5028655;28;20025;-44
2023/06/11 08:06:23;;;;;;;5.28;3.85;;;24.80;85.90;;;;;;5029420;28;20515;-43
2023/06/11 08:08:56;;;;;;;4.35;3.60;;;24.80;85.80;;;;;;5025170;28;20022;-43
2023/06/11 08:11:22;;;;;;;4.82;4.43;;;24.90;85.70;;;;;;5032247;28;20068;-43
2023/06/11 08:13:47;;;;;;;4.10;3.70;;;24.90;85.70;;;;;;5039771;28;20147;-43
2023/06/11 08:16:15;;;;;;;3.95;3.65;;;24.90;85.50;;;;;;5039362;28;20120;-43
2023/06/11 08:18:40;;;;;;;3.90;3.60;;;24.90;85.30;;;;;;5029541;28;20025;-43
2023/06/11 08:21:06;;;;;;;3.28;3.03;;;24.90;85.20;;;;;;5033359;28;20041;-43
2023/06/11 08:23:34;;;;;;;3.50;3.20;;;25.00;85.10;;;;;;5038603;28;20021;-43
2023/06/11 08:26:00;;;;;;;3.72;3.42;;;25.00;85.00;;;;;;5043915;28;20883;-43
2023/06/11 08:28:27;;;;;;;4.00;3.60;;;25.10;85.10;;;;;;5043161;28;20036;-43
2023/06/11 08:30:54;;;;;;;4.15;3.50;;;25.10;85.10;;;;;;5041924;28;20032;-42
2023/06/11 08:33:19;;;;;;;4.60;3.92;;;25.20;85.50;;;;;;5045431;28;20039;-44
2023/06/11 08:35:45;;;;;;;4.88;4.00;;;25.20;85.30;;;;;;5045811;28;20108;-42
2023/06/11 08:38:13;;;;;;;5.20;4.18;;;25.20;85.30;;;;;;5044936;28;20104;-43
2023/06/11 08:40:40;;;;;;;3.97;3.67;;;25.30;85.30;;;;;;5044932;28;20443;-45
2023/06/11 08:43:07;;;;;;;4.30;3.85;;;25.30;85.20;;;;;;5045718;28;20551;-43
2023/06/11 08:45:32;;;;;;;3.83;3.53;;;25.40;85.10;;;;;;5044484;28;20528;-43
2023/06/11 08:48:02;;;;;;;4.28;3.83;;;25.40;85.00;;;;;;5045663;28;20147;-43
2023/06/11 08:50:29;;;;;;;4.50;3.65;;;25.50;85.10;;;;;;5044934;28;20390;-43
2023/06/11 08:52:56;;;;;;;4.28;3.88;;;25.50;85.10;;;;;;5038420;28;20485;-43
2023/06/11 08:55:21;;;;;;;4.75;4.35;;;25.50;85.20;;;;;;5043392;28;20573;-43
2023/06/11 08:57:50;;;;;;;4.55;4.15;;;25.50;85.30;;;;;;5044948;28;20029;-44
2023/06/11 09:00:16;;;;;;;3.88;3.58;;;25.60;85.30;;;;;;5045254;28;20028;-43
2023/06/11 09:02:42;;;;;;;4.18;3.78;;;25.60;85.20;;;;;;5045422;28;20025;-43
2023/06/11 09:05:08;;;;;;;4.28;3.97;;;25.70;85.20;;;;;;5045076;28;20028;-43
2023/06/11 09:07:34;;;;;;;4.10;3.80;;;25.70;85.10;;;;;;5044596;28;20074;-44
2023/06/11 09:10:07;;;;;;;4.50;4.10;;;25.80;85.00;;;;;;5045271;28;20029;-44
2023/06/11 09:12:33;;;;;;;4.32;3.92;;;25.90;85.20;;;;;;5044494;28;20029;-43
2023/06/11 09:14:59;;;;;;;4.30;4.00;;;25.90;85.00;;;;;;5045294;28;20042;-43
2023/06/11 09:17:32;;;;;;;4.45;4.05;;;25.90;85.00;;;;;;5044566;28;20903;-43
2023/06/11 09:19:58;;;;;;;4.25;3.55;;;26.00;84.90;;;;;;5024720;28;20124;-43
2023/06/11 09:22:27;;;;;;;3.97;3.67;;;26.00;84.80;;;;;;5039404;28;20067;-43
2023/06/11 09:24:53;;;;;;;3.75;3.45;;;26.00;84.60;;;;;;5045093;28;20381;-43
2023/06/11 09:27:21;;;;;;;3.45;3.25;;;26.10;84.50;;;;;;5044741;28;20013;-44
2023/06/11 09:29:46;;;;;;;3.50;3.20;;;26.20;84.50;;;;;;5045398;28;20083;-43
2023/06/11 09:32:12;;;;;;;4.47;3.65;;;26.30;84.20;;;;;;5044138;28;20523;-44
2023/06/11 09:34:40;;;;;;;5.18;3.53;;;26.30;84.20;;;;;;5044142;28;20021;-43
2023/06/11 09:37:09;;;;;;;3.70;3.40;;;26.40;84.10;;;;;;5044555;28;20071;-43
2023/06/11 09:39:35;;;;;;;4.50;4.10;;;26.40;84.10;;;;;;5044471;28;20044;-44
2023/06/11 09:42:01;;;;;;;3.90;3.60;;;26.40;84.10;;;;;;5044213;28;20176;-43
2023/06/11 09:44:30;;;;;;;3.85;3.55;;;26.60;84.10;;;;;;5044738;28;20036;-43
2023/06/11 09:46:57;;;;;;;3.65;3.30;;;26.60;83.90;;;;;;5043927;28;20650;-43
2023/06/11 09:49:23;;;;;;;4.07;3.70;;;26.60;83.80;;;;;;5044881;28;20032;-43
2023/06/11 09:51:51;;;;;;;3.95;3.00;;;26.70;83.60;;;;;;5045086;28;20037;-44
2023/06/11 09:54:18;;;;;;;3.78;3.35;;;26.70;83.50;;;;;;5043498;28;20613;-43
2023/06/11 09:56:44;;;;;;;3.47;3.13;;;26.70;83.30;;;;;;5044751;28;20033;-43
2023/06/11 09:59:13;;;;;;;3.70;3.35;;;26.70;83.10;;;;;;5044011;28;20032;-44
2023/06/11 10:01:41;;;;;;;3.80;3.50;;;26.80;83.10;;;;;;5044204;28;20082;-43
2023/06/11 10:04:06;;;;;;;3.95;3.65;;;26.70;82.80;;;;;;5042672;28;20019;-43
2023/06/11 10:06:37;;;;;;;3.80;3.50;;;26.80;83.40;;;;;;5044121;28;20037;-44
2023/06/11 10:09:07;;;;;;;4.20;3.80;;;26.80;82.70;;;;;;5043383;28;20067;-43
2023/06/11 10:11:40;;;;;;;3.80;3.50;;;26.90;82.50;;;;;;5044493;28;20074;-44
2023/06/11 10:14:14;;;;;;;4.05;3.55;;;26.90;82.30;;;;;;5044284;28;20029;-43
2023/06/11 10:16:40;;;;;;;4.00;3.70;;;26.90;82.00;;;;;;5043094;28;20041;-44
2023/06/11 10:19:10;;;;;;;3.60;3.30;;;26.90;81.90;;;;;;5044373;28;20681;-44
2023/06/11 10:21:44;;;;;;;3.58;3.28;;;27.00;81.60;;;;;;5043460;28;20029;-44
2023/06/11 10:24:26;;;;;;;3.33;3.03;;;27.10;81.40;;;;;;5043149;28;20056;-44
2023/06/11 10:27:05;;;;;;;5.13;3.45;;;27.10;81.30;;;;;;5024920;28;20029;-43
2023/06/11 10:29:56;;;;;;;3.30;3.00;;;27.20;81.20;;;;;;5036554;28;20084;-44
2023/06/11 10:32:22;;;;;;;4.20;3.80;;;27.30;81.00;;;;;;5050653;28;20144;-44
2023/06/11 10:35:04;;;;;;;3.65;3.35;;;27.50;80.50;;;;;;5043935;28;20031;-42
2023/06/11 10:37:42;;;;;;;4.05;3.15;;;27.60;80.30;;;;;;5023603;28;20033;-44
2023/06/11 10:40:08;;;;;;;4.53;3.40;;;27.60;80.30;;;;;;5039031;28;20033;-43
2023/06/11 10:42:38;;;;;;;3.25;2.95;;;27.60;80.10;;;;;;5042831;28;20029;-44
2023/06/11 10:45:14;;;;;;;3.15;2.95;;;27.60;80.00;;;;;;5042213;28;20033;-43
2023/06/11 10:47:42;;;;;;;3.17;2.97;;;27.60;79.70;;;;;;5042967;28;20040;-43
2023/06/11 10:50:12;;;;;;;3.10;2.90;;;27.60;79.50;;;;;;5043378;28;20029;-43
2023/06/11 10:53:11;;;;;;;2.83;2.63;;;27.60;78.90;;;;;;5043290;28;20098;-44
2023/06/11 10:55:42;;;;;;;3.63;3.13;;;27.70;78.80;;;;;;5043140;28;20452;-43
2023/06/11 10:58:08;;;;;;;3.40;3.10;;;27.70;78.60;;;;;;5043135;28;20059;-44
2023/06/11 11:00:37;;;;;;;3.00;2.63;;;27.60;78.50;;;;;;5043467;28;20637;-44
2023/06/11 11:03:04;;;;;;;3.03;2.75;;;27.70;78.40;;;;;;5043702;28;20534;-44
2023/06/11 11:05:30;;;;;;;2.97;2.78;;;27.70;78.40;;;;;;5042263;28;20021;-43
2023/06/11 11:07:59;;;;;;;3.25;2.95;;;27.70;78.20;;;;;;5044330;28;20786;-43
2023/06/11 11:10:26;;;;;;;3.40;2.85;;;27.70;78.00;;;;;;5042653;28;20459;-44
2023/06/11 11:12:53;;;;;;;2.88;2.67;;;27.80;77.90;;;;;;5042542;28;20524;-43
2023/06/11 11:15:19;;;;;;;2.95;2.75;;;27.80;77.80;;;;;;5043068;28;20025;-43
2023/06/11 11:17:46;;;;;;;3.30;2.92;;;27.80;77.70;;;;;;5042573;28;20046;-43
2023/06/11 11:20:13;;;;;;;3.00;2.70;;;27.90;77.50;;;;;;5042422;28;20048;-44
2023/06/11 11:22:39;;;;;;;3.10;2.90;;;27.90;77.30;;;;;;5043179;28;20384;-43
2023/06/11 11:25:06;;;;;;;3.67;3.00;;;27.90;77.10;;;;;;5043923;28;20555;-44
2023/06/11 11:27:34;;;;;;;4.05;3.00;;;28.00;76.70;;;;;;5042531;28;20017;-44
2023/06/11 11:30:02;;;;;;;3.22;3.00;;;28.00;76.30;;;;;;5043965;28;20063;-43
2023/06/11 11:32:33;;;;;;;3.03;2.72;;;28.10;76.00;;;;;;5041743;28;20021;-43
2023/06/11 11:35:00;;;;;;;2.85;2.65;;;28.10;75.90;;;;;;5043834;28;20028;-44
2023/06/11 11:37:28;;;;;;;3.13;2.72;;;28.10;75.90;;;;;;5043026;28;20099;-44
2023/06/11 11:39:54;;;;;;;2.80;2.60;;;28.10;75.90;;;;;;5043038;28;20112;-43
2023/06/11 11:42:22;;;;;;;2.63;2.42;;;28.10;75.80;;;;;;5042086;28;20049;-44
2023/06/11 11:44:51;;;;;;;2.53;2.33;;;28.20;75.80;;;;;;5043557;28;20024;-42
2023/06/11 11:47:19;;;;;;;3.75;2.63;;;28.30;75.70;;;;;;5042305;28;20112;-45
2023/06/11 11:49:55;;;;;;;3.17;2.80;;;28.30;75.50;;;;;;5043401;28;20033;-43
2023/06/11 11:52:22;;;;;;;2.80;2.60;;;28.40;75.40;;;;;;5042789;28;20032;-44
2023/06/11 11:54:48;;;;;;;2.60;2.40;;;28.40;75.20;;;;;;5042804;28;20036;-44
2023/06/11 11:57:18;;;;;;;2.22;2.03;;;28.50;75.00;;;;;;5046496;28;20020;-43
2023/06/11 11:59:49;;;;;;;2.55;2.40;;;28.40;74.70;;;;;;5046937;28;20021;-43
2023/06/11 12:02:15;;;;;;;2.80;2.60;;;28.40;74.30;;;;;;5046074;28;20037;-43
2023/06/11 12:04:45;;;;;;;4.43;3.13;;;28.50;74.00;;;;;;5046165;28;20078;-44
2023/06/11 12:07:12;;;;;;;2.80;2.60;;;28.50;73.80;;;;;;5046930;28;20056;-43
2023/06/11 12:09:39;;;;;;;2.55;2.35;;;28.50;73.50;;;;;;5045560;28;20135;-43
2023/06/11 12:12:07;;;;;;;2.90;2.33;;;28.50;73.50;;;;;;5046471;28;20025;-44
2023/06/11 12:14:33;;;;;;;2.53;2.33;;;28.60;73.70;;;;;;5045930;28;20021;-44
2023/06/11 12:16:58;;;;;;;2.70;2.50;;;28.60;73.60;;;;;;5045921;28;20281;-44
2023/06/11 12:19:24;;;;;;;2.60;2.40;;;28.70;73.20;;;;;;5045870;28;20369;-43
2023/06/11 12:21:51;;;;;;;2.90;2.70;;;28.80;72.90;;;;;;5045614;28;20131;-44
2023/06/11 12:24:17;;;;;;;4.80;3.17;;;28.80;73.30;;;;;;5045928;28;20080;-42
2023/06/11 12:26:46;;;;;;;2.97;2.78;;;28.90;72.40;;;;;;5045827;28;20606;-42
2023/06/11 12:29:12;;;;;;;2.60;2.40;;;28.90;72.20;;;;;;5045308;28;20024;-43
2023/06/11 12:31:41;;;;;;;2.85;2.60;;;29.00;72.30;;;;;;5046199;28;20032;-43
2023/06/11 12:34:09;;;;;;;2.60;2.40;;;29.10;72.20;;;;;;5045997;28;20033;-43
2023/06/11 12:36:36;;;;;;;4.70;2.80;;;29.10;71.90;;;;;;5045148;28;20028;-43
2023/06/11 12:39:04;;;;;;;2.78;2.58;;;29.10;71.60;;;;;;5046407;28;20061;-43
2023/06/11 12:41:31;;;;;;;2.75;2.55;;;29.00;71.10;;;;;;5045761;28;20396;-44
2023/06/11 12:43:56;;;;;;;3.65;2.67;;;29.00;71.20;;;;;;5045207;28;20039;-43
2023/06/11 12:46:28;;;;;;;4.05;3.00;;;29.10;71.20;;;;;;5045873;28;20037;-43
2023/06/11 12:48:54;;;;;;;3.78;2.97;;;29.10;69.50;;;;;;5045754;28;20053;-45